sensor_id;sensor_type;location;lat;lon;timestamp;temperature;humidity
23335;DHT22;11839;48.598;8.870;2023-05-07T00:00:40;14.40;99.90
23335;DHT22;11839;48.598;8.870;2023-05-07T00:03:07;14.30;99.90
23335;DHT22;11839;48.598;8.870;2023-05-07T00:05:34;14.20;99.90
23335;DHT22;11839;48.598;8.870;2023-05-07T00:08:01;14.20;99.90
23335;DHT22;11839;48.598;8.870;2023-05-07T00:10:29;14.20;99.90
23335;DHT22;11839;48.598;8.870;2023-05-07T00:12:56;14.20;99.90
23335;DHT22;11839;48.598;8.870;2023-05-07T00:15:23;14.30;99.90
23335;DHT22;11839;48.598;8.870;2023-05-07T00:17:50;14.30;99.90
23335;DHT22;11839;48.598;8.870;2023-05-07T00:20:16;14.20;99.90
23335;DHT22;11839;48.598;8.870;2023-05-07T00:22:43;14.20;99.90
23335;DHT22;11839;48.598;8.870;2023-05-07T00:25:10;14.40;99.90
23335;DHT22;11839;48.598;8.870;2023-05-07T00:27:38;14.20;99.90
23335;DHT22;11839;48.598;8.870;2023-05-07T00:30:06;14.10;99.90
23335;DHT22;11839;48.598;8.870;2023-05-07T00:32:33;14.10;99.90
23335;DHT22;11839;48.598;8.870;2023-05-07T00:35:00;13.90;99.90
23335;DHT22;11839;48.598;8.870;2023-05-07T00:37:27;13.80;99.90
23335;DHT22;11839;48.598;8.870;2023-05-07T00:39:54;13.80;99.90
23335;DHT22;11839;48.598;8.870;2023-05-07T00:42:21;14.00;99.90
23335;DHT22;11839;48.598;8.870;2023-05-07T00:44:49;14.10;99.90
23335;DHT22;11839;48.598;8.870;2023-05-07T00:47:16;14.20;99.90
23335;DHT22;11839;48.598;8.870;2023-05-07T00:49:44;14.20;99.90
23335;DHT22;11839;48.598;8.870;2023-05-07T00:52:13;14.20;99.90
23335;DHT22;11839;48.598;8.870;2023-05-07T00:54:40;14.20;99.90
23335;DHT22;11839;48.598;8.870;2023-05-07T00:57:09;14.10;99.90
23335;DHT22;11839;48.598;8.870;2023-05-07T00:59:37;14.00;99.90
23335;DHT22;11839;48.598;8.870;2023-05-07T01:02:05;14.00;99.90
23335;DHT22;11839;48.598;8.870;2023-05-07T01:04:32;14.10;99.90
23335;DHT22;11839;48.598;8.870;2023-05-07T01:07:00;14.10;99.90
23335;DHT22;11839;48.598;8.870;2023-05-07T01:09:28;14.10;99.90
23335;DHT22;11839;48.598;8.870;2023-05-07T01:11:56;13.90;99.90
23335;DHT22;11839;48.598;8.870;2023-05-07T01:14:24;13.70;99.90
23335;DHT22;11839;48.598;8.870;2023-05-07T01:16:51;13.80;99.90
23335;DHT22;11839;48.598;8.870;2023-05-07T01:19:20;13.70;99.90
23335;DHT22;11839;48.598;8.870;2023-05-07T01:21:48;13.60;99.90
23335;DHT22;11839;48.598;8.870;2023-05-07T01:24:16;13.90;99.90
23335;DHT22;11839;48.598;8.870;2023-05-07T01:26:44;14.00;99.90
23335;DHT22;11839;48.598;8.870;2023-05-07T01:29:11;14.00;99.90
23335;DHT22;11839;48.598;8.870;2023-05-07T01:31:38;14.10;99.90
23335;DHT22;11839;48.598;8.870;2023-05-07T01:34:07;14.10;99.90
23335;DHT22;11839;48.598;8.870;2023-05-07T01:36:37;13.90;99.90
23335;DHT22;11839;48.598;8.870;2023-05-07T01:39:05;13.90;99.90
23335;DHT22;11839;48.598;8.870;2023-05-07T01:41:34;13.70;99.90
23335;DHT22;11839;48.598;8.870;2023-05-07T01:44:01;13.70;99.90
23335;DHT22;11839;48.598;8.870;2023-05-07T01:46:29;13.90;99.90
23335;DHT22;11839;48.598;8.870;2023-05-07T01:48:57;13.80;99.90
23335;DHT22;11839;48.598;8.870;2023-05-07T01:51:24;13.70;99.90
23335;DHT22;11839;48.598;8.870;2023-05-07T01:53:52;13.70;99.90
23335;DHT22;11839;48.598;8.870;2023-05-07T01:56:19;13.80;99.90
23335;DHT22;11839;48.598;8.870;2023-05-07T01:58:48;13.90;99.90
23335;DHT22;11839;48.598;8.870;2023-05-07T02:01:16;13.80;99.90
23335;DHT22;11839;48.598;8.870;2023-05-07T02:03:43;13.60;99.90
23335;DHT22;11839;48.598;8.870;2023-05-07T02:06:10;13.80;99.90
23335;DHT22;11839;48.598;8.870;2023-05-07T02:08:37;13.60;99.90
23335;DHT22;11839;48.598;8.870;2023-05-07T02:11:03;13.80;99.90
23335;DHT22;11839;48.598;8.870;2023-05-07T02:16:53;14.00;99.90
23335;DHT22;11839;48.598;8.870;2023-05-07T02:19:20;13.70;99.90
23335;DHT22;11839;48.598;8.870;2023-05-07T02:21:47;13.80;99.90
23335;DHT22;11839;48.598;8.870;2023-05-07T02:24:14;13.60;99.90
23335;DHT22;11839;48.598;8.870;2023-05-07T02:26:41;13.50;99.90
23335;DHT22;11839;48.598;8.870;2023-05-07T02:29:07;13.10;99.90
23335;DHT22;11839;48.598;8.870;2023-05-07T02:31:34;13.00;99.90
23335;DHT22;11839;48.598;8.870;2023-05-07T02:34:02;13.10;99.90
23335;DHT22;11839;48.598;8.870;2023-05-07T02:36:29;12.90;99.90
23335;DHT22;11839;48.598;8.870;2023-05-07T02:38:56;13.10;99.90
23335;DHT22;11839;48.598;8.870;2023-05-07T02:41:22;13.30;99.90
23335;DHT22;11839;48.598;8.870;2023-05-07T02:43:49;13.40;99.90
23335;DHT22;11839;48.598;8.870;2023-05-07T02:46:16;13.20;99.90
23335;DHT22;11839;48.598;8.870;2023-05-07T02:48:43;13.20;99.90
23335;DHT22;11839;48.598;8.870;2023-05-07T02:51:11;13.20;99.90
23335;DHT22;11839;48.598;8.870;2023-05-07T02:53:38;13.30;99.90
23335;DHT22;11839;48.598;8.870;2023-05-07T02:56:05;13.20;99.90
23335;DHT22;11839;48.598;8.870;2023-05-07T02:58:32;13.10;99.90
23335;DHT22;11839;48.598;8.870;2023-05-07T03:00:59;13.00;99.90
23335;DHT22;11839;48.598;8.870;2023-05-07T03:03:26;13.30;99.90
23335;DHT22;11839;48.598;8.870;2023-05-07T03:05:52;13.40;99.90
23335;DHT22;11839;48.598;8.870;2023-05-07T03:08:20;13.40;99.90
23335;DHT22;11839;48.598;8.870;2023-05-07T03:10:47;13.50;99.90
23335;DHT22;11839;48.598;8.870;2023-05-07T03:13:14;13.50;99.90
23335;DHT22;11839;48.598;8.870;2023-05-07T03:15:41;13.40;99.90
23335;DHT22;11839;48.598;8.870;2023-05-07T03:18:07;13.30;99.90
23335;DHT22;11839;48.598;8.870;2023-05-07T03:20:34;13.50;99.90
23335;DHT22;11839;48.598;8.870;2023-05-07T03:23:01;13.50;99.90
23335;DHT22;11839;48.598;8.870;2023-05-07T03:25:29;13.20;99.90
23335;DHT22;11839;48.598;8.870;2023-05-07T03:27:57;13.00;99.90
23335;DHT22;11839;48.598;8.870;2023-05-07T03:30:24;13.00;99.90
23335;DHT22;11839;48.598;8.870;2023-05-07T03:32:50;13.00;99.90
23335;DHT22;11839;48.598;8.870;2023-05-07T03:35:17;12.90;99.90
23335;DHT22;11839;48.598;8.870;2023-05-07T03:37:44;13.10;99.90
23335;DHT22;11839;48.598;8.870;2023-05-07T03:40:11;13.00;99.90
23335;DHT22;11839;48.598;8.870;2023-05-07T03:42:40;13.00;99.90
23335;DHT22;11839;48.598;8.870;2023-05-07T03:45:08;12.70;99.90
23335;DHT22;11839;48.598;8.870;2023-05-07T03:47:35;12.70;99.90
23335;DHT22;11839;48.598;8.870;2023-05-07T03:50:01;12.40;99.90
23335;DHT22;11839;48.598;8.870;2023-05-07T03:52:28;12.70;99.90
23335;DHT22;11839;48.598;8.870;2023-05-07T03:54:55;12.90;99.90
23335;DHT22;11839;48.598;8.870;2023-05-07T03:57:22;12.90;99.90
23335;DHT22;11839;48.598;8.870;2023-05-07T03:59:50;12.90;99.90
23335;DHT22;11839;48.598;8.870;2023-05-07T04:02:16;13.10;99.90
23335;DHT22;11839;48.598;8.870;2023-05-07T04:04:43;13.10;99.90
23335;DHT22;11839;48.598;8.870;2023-05-07T04:07:10;13.10;99.90
23335;DHT22;11839;48.598;8.870;2023-05-07T04:09:37;13.00;99.90
23335;DHT22;11839;48.598;8.870;2023-05-07T04:12:04;12.90;99.90
23335;DHT22;11839;48.598;8.870;2023-05-07T04:14:31;12.90;99.90
23335;DHT22;11839;48.598;8.870;2023-05-07T04:16:59;13.00;99.90
23335;DHT22;11839;48.598;8.870;2023-05-07T04:19:26;13.10;99.90
23335;DHT22;11839;48.598;8.870;2023-05-07T04:21:53;13.30;99.90
23335;DHT22;11839;48.598;8.870;2023-05-07T04:24:20;13.20;99.90
23335;DHT22;11839;48.598;8.870;2023-05-07T04:26:46;13.10;99.90
23335;DHT22;11839;48.598;8.870;2023-05-07T04:29:13;13.30;99.90
23335;DHT22;11839;48.598;8.870;2023-05-07T04:31:40;13.20;99.90
23335;DHT22;11839;48.598;8.870;2023-05-07T04:34:11;13.50;99.90
23335;DHT22;11839;48.598;8.870;2023-05-07T04:36:38;13.60;99.90
23335;DHT22;11839;48.598;8.870;2023-05-07T04:39:05;13.60;99.90
23335;DHT22;11839;48.598;8.870;2023-05-07T04:41:32;13.20;99.90
23335;DHT22;11839;48.598;8.870;2023-05-07T04:43:59;13.30;99.90
23335;DHT22;11839;48.598;8.870;2023-05-07T04:46:26;12.90;99.90
23335;DHT22;11839;48.598;8.870;2023-05-07T04:48:52;12.70;99.90
23335;DHT22;11839;48.598;8.870;2023-05-07T04:51:21;12.60;99.90
23335;DHT22;11839;48.598;8.870;2023-05-07T04:53:48;12.90;99.90
23335;DHT22;11839;48.598;8.870;2023-05-07T04:56:15;13.20;99.90
23335;DHT22;11839;48.598;8.870;2023-05-07T04:58:41;13.10;99.90
23335;DHT22;11839;48.598;8.870;2023-05-07T05:01:08;13.10;99.90
23335;DHT22;11839;48.598;8.870;2023-05-07T05:03:35;13.20;99.90
23335;DHT22;11839;48.598;8.870;2023-05-07T05:06:02;13.30;99.90
23335;DHT22;11839;48.598;8.870;2023-05-07T05:08:31;13.50;99.90
23335;DHT22;11839;48.598;8.870;2023-05-07T05:10:57;13.60;99.90
23335;DHT22;11839;48.598;8.870;2023-05-07T05:13:24;13.50;99.90
23335;DHT22;11839;48.598;8.870;2023-05-07T05:15:51;13.70;99.90
23335;DHT22;11839;48.598;8.870;2023-05-07T05:18:18;13.90;99.90
23335;DHT22;11839;48.598;8.870;2023-05-07T05:20:44;13.90;99.90
23335;DHT22;11839;48.598;8.870;2023-05-07T05:23:11;14.10;99.90
23335;DHT22;11839;48.598;8.870;2023-05-07T05:25:39;14.20;99.90
23335;DHT22;11839;48.598;8.870;2023-05-07T05:28:06;14.50;99.90
23335;DHT22;11839;48.598;8.870;2023-05-07T05:30:33;14.40;99.90
23335;DHT22;11839;48.598;8.870;2023-05-07T05:33:00;14.60;99.90
23335;DHT22;11839;48.598;8.870;2023-05-07T05:35:27;15.00;99.90
23335;DHT22;11839;48.598;8.870;2023-05-07T05:37:54;15.10;99.90
23335;DHT22;11839;48.598;8.870;2023-05-07T05:40:20;15.40;99.90
23335;DHT22;11839;48.598;8.870;2023-05-07T05:42:48;15.70;99.90
23335;DHT22;11839;48.598;8.870;2023-05-07T05:45:15;16.00;99.90
23335;DHT22;11839;48.598;8.870;2023-05-07T05:47:43;16.30;99.90
23335;DHT22;11839;48.598;8.870;2023-05-07T05:50:10;16.50;99.90
23335;DHT22;11839;48.598;8.870;2023-05-07T05:52:36;16.60;99.90
23335;DHT22;11839;48.598;8.870;2023-05-07T05:55:04;16.90;99.90
23335;DHT22;11839;48.598;8.870;2023-05-07T05:57:30;17.00;99.90
23335;DHT22;11839;48.598;8.870;2023-05-07T05:59:59;17.00;99.90
23335;DHT22;11839;48.598;8.870;2023-05-07T06:02:26;17.30;99.90
23335;DHT22;11839;48.598;8.870;2023-05-07T06:04:53;17.40;99.90
23335;DHT22;11839;48.598;8.870;2023-05-07T06:07:19;17.80;99.90
23335;DHT22;11839;48.598;8.870;2023-05-07T06:09:46;17.70;99.90
23335;DHT22;11839;48.598;8.870;2023-05-07T06:12:13;17.60;99.90
23335;DHT22;11839;48.598;8.870;2023-05-07T06:14:40;17.60;99.90
23335;DHT22;11839;48.598;8.870;2023-05-07T06:17:10;17.60;99.90
23335;DHT22;11839;48.598;8.870;2023-05-07T06:19:37;17.70;99.90
23335;DHT22;11839;48.598;8.870;2023-05-07T06:22:03;17.70;99.90
23335;DHT22;11839;48.598;8.870;2023-05-07T06:24:30;17.90;99.90
23335;DHT22;11839;48.598;8.870;2023-05-07T06:26:57;18.20;99.90
23335;DHT22;11839;48.598;8.870;2023-05-07T06:29:25;18.50;99.90
23335;DHT22;11839;48.598;8.870;2023-05-07T06:31:52;18.60;99.90
23335;DHT22;11839;48.598;8.870;2023-05-07T06:34:20;18.70;99.90
23335;DHT22;11839;48.598;8.870;2023-05-07T06:36:47;18.60;99.90
23335;DHT22;11839;48.598;8.870;2023-05-07T06:39:14;18.40;99.90
23335;DHT22;11839;48.598;8.870;2023-05-07T06:41:41;18.50;99.90
23335;DHT22;11839;48.598;8.870;2023-05-07T06:44:07;18.60;99.90
23335;DHT22;11839;48.598;8.870;2023-05-07T06:46:34;18.60;99.90
23335;DHT22;11839;48.598;8.870;2023-05-07T06:49:01;18.30;99.90
23335;DHT22;11839;48.598;8.870;2023-05-07T06:51:29;18.30;99.90
23335;DHT22;11839;48.598;8.870;2023-05-07T06:53:56;17.90;99.90
23335;DHT22;11839;48.598;8.870;2023-05-07T06:56:23;18.00;99.90
23335;DHT22;11839;48.598;8.870;2023-05-07T06:58:50;18.30;99.90
23335;DHT22;11839;48.598;8.870;2023-05-07T07:01:17;18.30;99.90
23335;DHT22;11839;48.598;8.870;2023-05-07T07:03:44;19.00;99.90
23335;DHT22;11839;48.598;8.870;2023-05-07T07:06:10;19.50;99.90
23335;DHT22;11839;48.598;8.870;2023-05-07T07:08:38;19.80;99.90
23335;DHT22;11839;48.598;8.870;2023-05-07T07:11:05;19.50;99.90
23335;DHT22;11839;48.598;8.870;2023-05-07T07:13:32;19.80;99.90
23335;DHT22;11839;48.598;8.870;2023-05-07T07:16:00;19.80;99.90
23335;DHT22;11839;48.598;8.870;2023-05-07T07:18:27;19.90;99.90
23335;DHT22;11839;48.598;8.870;2023-05-07T07:20:53;20.30;99.90
23335;DHT22;11839;48.598;8.870;2023-05-07T07:23:20;20.50;99.90
23335;DHT22;11839;48.598;8.870;2023-05-07T07:25:48;20.50;99.90
23335;DHT22;11839;48.598;8.870;2023-05-07T07:28:15;20.20;99.90
23335;DHT22;11839;48.598;8.870;2023-05-07T07:30:42;20.30;99.90
23335;DHT22;11839;48.598;8.870;2023-05-07T07:33:09;20.40;99.90
23335;DHT22;11839;48.598;8.870;2023-05-07T07:35:36;19.90;99.90
23335;DHT22;11839;48.598;8.870;2023-05-07T07:38:03;19.40;99.90
23335;DHT22;11839;48.598;8.870;2023-05-07T07:40:30;19.20;99.90
23335;DHT22;11839;48.598;8.870;2023-05-07T07:42:58;19.60;99.90
23335;DHT22;11839;48.598;8.870;2023-05-07T07:45:26;19.60;99.90
23335;DHT22;11839;48.598;8.870;2023-05-07T07:47:53;19.30;99.90
23335;DHT22;11839;48.598;8.870;2023-05-07T07:50:20;19.30;99.90
23335;DHT22;11839;48.598;8.870;2023-05-07T07:52:47;19.60;99.90
23335;DHT22;11839;48.598;8.870;2023-05-07T07:55:14;19.80;99.90
23335;DHT22;11839;48.598;8.870;2023-05-07T07:57:43;20.60;99.90
23335;DHT22;11839;48.598;8.870;2023-05-07T08:00:12;20.60;99.90
23335;DHT22;11839;48.598;8.870;2023-05-07T08:02:39;20.90;99.90
23335;DHT22;11839;48.598;8.870;2023-05-07T08:05:07;21.40;99.90
23335;DHT22;11839;48.598;8.870;2023-05-07T08:07:34;22.00;99.90
23335;DHT22;11839;48.598;8.870;2023-05-07T08:10:01;21.80;99.90
23335;DHT22;11839;48.598;8.870;2023-05-07T08:12:27;22.30;99.90
23335;DHT22;11839;48.598;8.870;2023-05-07T08:14:54;22.20;98.60
23335;DHT22;11839;48.598;8.870;2023-05-07T08:17:23;22.10;98.70
23335;DHT22;11839;48.598;8.870;2023-05-07T08:19:49;21.70;99.30
23335;DHT22;11839;48.598;8.870;2023-05-07T08:22:16;21.40;99.80
23335;DHT22;11839;48.598;8.870;2023-05-07T08:24:43;21.60;99.90
23335;DHT22;11839;48.598;8.870;2023-05-07T08:27:11;22.20;99.60
23335;DHT22;11839;48.598;8.870;2023-05-07T08:29:37;22.50;98.80
23335;DHT22;11839;48.598;8.870;2023-05-07T08:32:04;22.70;98.90
23335;DHT22;11839;48.598;8.870;2023-05-07T08:34:33;22.00;99.30
23335;DHT22;11839;48.598;8.870;2023-05-07T08:36:59;22.00;99.50
23335;DHT22;11839;48.598;8.870;2023-05-07T08:39:26;22.20;99.60
23335;DHT22;11839;48.598;8.870;2023-05-07T08:41:55;22.50;98.80
23335;DHT22;11839;48.598;8.870;2023-05-07T08:44:26;22.90;98.60
23335;DHT22;11839;48.598;8.870;2023-05-07T08:46:53;23.40;98.40
23335;DHT22;11839;48.598;8.870;2023-05-07T08:49:22;23.50;97.40
23335;DHT22;11839;48.598;8.870;2023-05-07T08:51:50;23.00;97.80
23335;DHT22;11839;48.598;8.870;2023-05-07T08:54:17;22.70;98.50
23335;DHT22;11839;48.598;8.870;2023-05-07T08:56:45;22.50;98.80
23335;DHT22;11839;48.598;8.870;2023-05-07T08:59:12;22.40;99.10
23335;DHT22;11839;48.598;8.870;2023-05-07T09:01:38;22.10;99.40
23335;DHT22;11839;48.598;8.870;2023-05-07T09:04:05;22.10;99.70
23335;DHT22;11839;48.598;8.870;2023-05-07T09:06:33;22.20;99.40
23335;DHT22;11839;48.598;8.870;2023-05-07T09:09:01;22.60;99.00
23335;DHT22;11839;48.598;8.870;2023-05-07T09:11:30;22.90;98.30
23335;DHT22;11839;48.598;8.870;2023-05-07T09:13:57;22.70;97.90
23335;DHT22;11839;48.598;8.870;2023-05-07T09:16:27;22.40;98.80
23335;DHT22;11839;48.598;8.870;2023-05-07T09:18:54;22.70;98.00
23335;DHT22;11839;48.598;8.870;2023-05-07T09:21:22;22.80;97.60
23335;DHT22;11839;48.598;8.870;2023-05-07T09:27:12;23.30;97.50
23335;DHT22;11839;48.598;8.870;2023-05-07T09:29:38;23.30;98.10
23335;DHT22;11839;48.598;8.870;2023-05-07T09:32:06;23.30;97.40
23335;DHT22;11839;48.598;8.870;2023-05-07T09:34:33;23.50;96.70
23335;DHT22;11839;48.598;8.870;2023-05-07T09:37:01;23.80;96.40
23335;DHT22;11839;48.598;8.870;2023-05-07T09:39:38;24.30;95.40
23335;DHT22;11839;48.598;8.870;2023-05-07T09:42:06;24.10;95.70
23335;DHT22;11839;48.598;8.870;2023-05-07T09:44:34;23.60;96.40
23335;DHT22;11839;48.598;8.870;2023-05-07T09:47:02;23.60;96.70
23335;DHT22;11839;48.598;8.870;2023-05-07T09:49:34;24.00;96.70
23335;DHT22;11839;48.598;8.870;2023-05-07T09:52:02;23.80;96.70
23335;DHT22;11839;48.598;8.870;2023-05-07T09:54:31;24.20;96.10
23335;DHT22;11839;48.598;8.870;2023-05-07T09:57:00;24.70;96.00
23335;DHT22;11839;48.598;8.870;2023-05-07T09:59:28;24.70;95.60
23335;DHT22;11839;48.598;8.870;2023-05-07T10:01:59;24.80;95.40
23335;DHT22;11839;48.598;8.870;2023-05-07T10:04:26;24.50;95.10
23335;DHT22;11839;48.598;8.870;2023-05-07T10:06:54;25.00;95.00
23335;DHT22;11839;48.598;8.870;2023-05-07T10:09:21;25.40;94.70
23335;DHT22;11839;48.598;8.870;2023-05-07T10:11:49;25.50;93.80
23335;DHT22;11839;48.598;8.870;2023-05-07T10:14:16;24.90;94.60
23335;DHT22;11839;48.598;8.870;2023-05-07T10:16:43;24.90;94.60
23335;DHT22;11839;48.598;8.870;2023-05-07T10:19:12;25.30;94.40
23335;DHT22;11839;48.598;8.870;2023-05-07T10:21:44;25.70;92.40
23335;DHT22;11839;48.598;8.870;2023-05-07T10:24:20;25.60;93.70
23335;DHT22;11839;48.598;8.870;2023-05-07T10:26:50;25.10;93.80
23335;DHT22;11839;48.598;8.870;2023-05-07T10:29:24;24.70;95.00
23335;DHT22;11839;48.598;8.870;2023-05-07T10:32:02;24.80;95.10
23335;DHT22;11839;48.598;8.870;2023-05-07T10:34:40;25.10;94.70
23335;DHT22;11839;48.598;8.870;2023-05-07T10:37:09;25.40;94.20
23335;DHT22;11839;48.598;8.870;2023-05-07T10:39:37;25.80;94.10
23335;DHT22;11839;48.598;8.870;2023-05-07T10:42:08;25.90;93.70
23335;DHT22;11839;48.598;8.870;2023-05-07T10:44:35;25.70;92.90
23335;DHT22;11839;48.598;8.870;2023-05-07T10:47:09;25.90;93.50
23335;DHT22;11839;48.598;8.870;2023-05-07T10:52:43;26.00;91.40
23335;DHT22;11839;48.598;8.870;2023-05-07T10:55:20;26.90;90.50
23335;DHT22;11839;48.598;8.870;2023-05-07T10:57:50;27.60;89.00
23335;DHT22;11839;48.598;8.870;2023-05-07T11:00:42;27.50;89.90
23335;DHT22;11839;48.598;8.870;2023-05-07T11:03:10;27.40;90.30
23335;DHT22;11839;48.598;8.870;2023-05-07T11:05:39;27.00;90.60
23335;DHT22;11839;48.598;8.870;2023-05-07T11:08:06;27.30;89.80
23335;DHT22;11839;48.598;8.870;2023-05-07T11:10:50;27.70;88.40
23335;DHT22;11839;48.598;8.870;2023-05-07T11:13:18;27.30;87.90
23335;DHT22;11839;48.598;8.870;2023-05-07T11:15:46;26.60;86.10
23335;DHT22;11839;48.598;8.870;2023-05-07T11:18:14;26.70;86.40
23335;DHT22;11839;48.598;8.870;2023-05-07T11:20:58;26.70;87.40
23335;DHT22;11839;48.598;8.870;2023-05-07T11:23:57;26.70;89.50
23335;DHT22;11839;48.598;8.870;2023-05-07T11:26:25;26.30;88.70
23335;DHT22;11839;48.598;8.870;2023-05-07T11:28:52;25.90;88.40
23335;DHT22;11839;48.598;8.870;2023-05-07T11:31:21;25.80;88.40
23335;DHT22;11839;48.598;8.870;2023-05-07T11:33:49;25.80;87.90
23335;DHT22;11839;48.598;8.870;2023-05-07T11:36:18;25.70;89.20
23335;DHT22;11839;48.598;8.870;2023-05-07T11:38:46;25.60;90.00
23335;DHT22;11839;48.598;8.870;2023-05-07T11:41:13;25.20;91.70
23335;DHT22;11839;48.598;8.870;2023-05-07T11:43:57;25.30;91.40
23335;DHT22;11839;48.598;8.870;2023-05-07T11:46:24;25.40;91.10
23335;DHT22;11839;48.598;8.870;2023-05-07T11:48:51;24.90;91.80
23335;DHT22;11839;48.598;8.870;2023-05-07T11:51:24;24.70;91.60
23335;DHT22;11839;48.598;8.870;2023-05-07T11:53:53;24.50;91.40
23335;DHT22;11839;48.598;8.870;2023-05-07T11:56:20;24.30;92.80
23335;DHT22;11839;48.598;8.870;2023-05-07T11:58:48;23.70;94.20
23335;DHT22;11839;48.598;8.870;2023-05-07T12:01:16;22.50;96.20
23335;DHT22;11839;48.598;8.870;2023-05-07T12:03:44;22.30;97.20
23335;DHT22;11839;48.598;8.870;2023-05-07T12:06:11;22.30;97.70
23335;DHT22;11839;48.598;8.870;2023-05-07T12:08:41;22.40;97.60
23335;DHT22;11839;48.598;8.870;2023-05-07T12:11:09;22.20;97.80
23335;DHT22;11839;48.598;8.870;2023-05-07T12:13:37;21.90;97.70
23335;DHT22;11839;48.598;8.870;2023-05-07T12:16:06;21.90;98.30
23335;DHT22;11839;48.598;8.870;2023-05-07T12:18:34;21.20;99.50
23335;DHT22;11839;48.598;8.870;2023-05-07T12:21:01;21.20;99.90
23335;DHT22;11839;48.598;8.870;2023-05-07T12:23:29;21.10;99.90
23335;DHT22;11839;48.598;8.870;2023-05-07T12:25:59;21.00;99.90
23335;DHT22;11839;48.598;8.870;2023-05-07T12:28:26;20.90;99.90
23335;DHT22;11839;48.598;8.870;2023-05-07T12:30:53;20.90;99.90
23335;DHT22;11839;48.598;8.870;2023-05-07T12:33:24;21.00;99.90
23335;DHT22;11839;48.598;8.870;2023-05-07T12:35:54;20.90;99.90
23335;DHT22;11839;48.598;8.870;2023-05-07T12:38:22;20.80;99.90
23335;DHT22;11839;48.598;8.870;2023-05-07T12:40:50;20.60;99.90
23335;DHT22;11839;48.598;8.870;2023-05-07T12:43:19;20.90;99.90
23335;DHT22;11839;48.598;8.870;2023-05-07T12:45:48;21.00;99.90
23335;DHT22;11839;48.598;8.870;2023-05-07T12:48:15;20.70;99.90
23335;DHT22;11839;48.598;8.870;2023-05-07T12:50:43;20.90;99.90
23335;DHT22;11839;48.598;8.870;2023-05-07T12:53:11;21.00;99.90
23335;DHT22;11839;48.598;8.870;2023-05-07T12:55:42;20.70;99.90
23335;DHT22;11839;48.598;8.870;2023-05-07T12:58:15;20.70;99.90
23335;DHT22;11839;48.598;8.870;2023-05-07T13:00:46;20.60;99.90
23335;DHT22;11839;48.598;8.870;2023-05-07T13:03:21;20.10;99.90
23335;DHT22;11839;48.598;8.870;2023-05-07T13:05:48;19.60;99.90
23335;DHT22;11839;48.598;8.870;2023-05-07T13:08:25;18.90;99.90
23335;DHT22;11839;48.598;8.870;2023-05-07T13:10:52;18.80;99.90
23335;DHT22;11839;48.598;8.870;2023-05-07T13:13:19;18.70;99.90
23335;DHT22;11839;48.598;8.870;2023-05-07T13:15:48;18.40;99.90
23335;DHT22;11839;48.598;8.870;2023-05-07T13:18:15;18.10;99.90
23335;DHT22;11839;48.598;8.870;2023-05-07T13:20:41;18.00;99.90
23335;DHT22;11839;48.598;8.870;2023-05-07T13:23:08;17.90;99.90
23335;DHT22;11839;48.598;8.870;2023-05-07T13:25:35;17.70;99.90
23335;DHT22;11839;48.598;8.870;2023-05-07T13:28:03;17.80;99.90
23335;DHT22;11839;48.598;8.870;2023-05-07T13:30:30;17.80;99.90
23335;DHT22;11839;48.598;8.870;2023-05-07T13:32:58;17.90;99.90
23335;DHT22;11839;48.598;8.870;2023-05-07T13:35:25;17.70;99.90
23335;DHT22;11839;48.598;8.870;2023-05-07T13:37:52;17.50;99.90
23335;DHT22;11839;48.598;8.870;2023-05-07T13:40:20;17.60;99.90
23335;DHT22;11839;48.598;8.870;2023-05-07T13:42:47;17.90;99.90
23335;DHT22;11839;48.598;8.870;2023-05-07T13:45:14;18.10;99.90
23335;DHT22;11839;48.598;8.870;2023-05-07T13:47:41;18.20;99.90
23335;DHT22;11839;48.598;8.870;2023-05-07T13:50:10;18.00;99.90
23335;DHT22;11839;48.598;8.870;2023-05-07T13:52:39;17.90;99.90
23335;DHT22;11839;48.598;8.870;2023-05-07T13:55:07;18.00;99.90
23335;DHT22;11839;48.598;8.870;2023-05-07T13:57:33;18.10;99.90
23335;DHT22;11839;48.598;8.870;2023-05-07T14:00:01;18.40;99.90
23335;DHT22;11839;48.598;8.870;2023-05-07T14:02:27;18.30;99.90
23335;DHT22;11839;48.598;8.870;2023-05-07T14:04:54;18.10;99.90
23335;DHT22;11839;48.598;8.870;2023-05-07T14:07:22;17.80;99.90
23335;DHT22;11839;48.598;8.870;2023-05-07T14:09:49;17.30;99.90
23335;DHT22;11839;48.598;8.870;2023-05-07T14:12:16;17.00;99.90
23335;DHT22;11839;48.598;8.870;2023-05-07T14:14:43;16.90;99.90
23335;DHT22;11839;48.598;8.870;2023-05-07T14:17:10;17.20;99.90
23335;DHT22;11839;48.598;8.870;2023-05-07T14:19:37;17.60;99.90
23335;DHT22;11839;48.598;8.870;2023-05-07T14:22:04;17.50;99.90
23335;DHT22;11839;48.598;8.870;2023-05-07T14:24:32;17.50;99.90
23335;DHT22;11839;48.598;8.870;2023-05-07T14:26:59;17.40;99.90
23335;DHT22;11839;48.598;8.870;2023-05-07T14:29:26;17.20;99.90
23335;DHT22;11839;48.598;8.870;2023-05-07T14:31:53;16.90;99.90
23335;DHT22;11839;48.598;8.870;2023-05-07T14:34:20;16.70;99.90
23335;DHT22;11839;48.598;8.870;2023-05-07T14:36:47;16.70;99.90
23335;DHT22;11839;48.598;8.870;2023-05-07T14:39:14;16.70;99.90
23335;DHT22;11839;48.598;8.870;2023-05-07T14:41:42;16.90;99.90
23335;DHT22;11839;48.598;8.870;2023-05-07T14:44:09;17.00;99.90
23335;DHT22;11839;48.598;8.870;2023-05-07T14:46:36;17.40;99.90
23335;DHT22;11839;48.598;8.870;2023-05-07T14:49:03;17.60;99.90
23335;DHT22;11839;48.598;8.870;2023-05-07T14:51:30;17.90;99.90
23335;DHT22;11839;48.598;8.870;2023-05-07T14:53:58;18.10;99.90
23335;DHT22;11839;48.598;8.870;2023-05-07T14:56:25;18.50;99.90
23335;DHT22;11839;48.598;8.870;2023-05-07T14:58:53;18.40;99.90
23335;DHT22;11839;48.598;8.870;2023-05-07T15:01:20;18.20;99.90
23335;DHT22;11839;48.598;8.870;2023-05-07T15:03:47;18.10;99.90
23335;DHT22;11839;48.598;8.870;2023-05-07T15:06:14;18.30;99.90
23335;DHT22;11839;48.598;8.870;2023-05-07T15:08:41;18.30;99.90
23335;DHT22;11839;48.598;8.870;2023-05-07T15:11:08;18.00;99.90
23335;DHT22;11839;48.598;8.870;2023-05-07T15:13:35;18.20;99.90
23335;DHT22;11839;48.598;8.870;2023-05-07T15:16:03;18.30;99.90
23335;DHT22;11839;48.598;8.870;2023-05-07T15:18:30;18.40;99.90
23335;DHT22;11839;48.598;8.870;2023-05-07T15:20:57;18.70;99.90
23335;DHT22;11839;48.598;8.870;2023-05-07T15:23:24;18.80;99.90
23335;DHT22;11839;48.598;8.870;2023-05-07T15:25:51;18.70;99.90
23335;DHT22;11839;48.598;8.870;2023-05-07T15:28:18;18.90;99.90
23335;DHT22;11839;48.598;8.870;2023-05-07T15:31:15;19.20;99.90
23335;DHT22;11839;48.598;8.870;2023-05-07T15:33:42;19.30;99.90
23335;DHT22;11839;48.598;8.870;2023-05-07T15:36:10;19.80;99.90
23335;DHT22;11839;48.598;8.870;2023-05-07T15:38:36;20.10;99.90
23335;DHT22;11839;48.598;8.870;2023-05-07T15:41:03;19.70;99.90
23335;DHT22;11839;48.598;8.870;2023-05-07T15:43:30;19.30;99.90